createdAt,value
2022-09-15T00:02:51.050Z,23.11
2022-09-15T00:05:54.284Z,23.23
2022-09-15T00:08:56.623Z,23.29
2022-09-15T00:11:58.816Z,23.46
2022-09-15T00:15:01.149Z,23.53
2022-09-15T00:18:03.440Z,23.60
2022-09-15T00:21:11.603Z,23.67
2022-09-15T00:24:14.251Z,23.74
2022-09-15T00:27:17.155Z,23.65
2022-09-15T00:30:19.322Z,23.79
2022-09-15T00:33:22.735Z,23.73
2022-09-15T00:36:26.402Z,23.70
2022-09-15T00:39:28.585Z,23.70
2022-09-15T00:42:30.788Z,23.76
2022-09-15T00:45:32.995Z,23.79
2022-09-15T00:48:37.143Z,23.77
2022-09-15T00:51:50.630Z,23.71
2022-09-15T00:55:16.124Z,23.69
2022-09-15T00:58:28.764Z,23.67
2022-09-15T01:01:31.879Z,23.60
2022-09-15T01:04:34.184Z,23.57
2022-09-15T01:07:47.520Z,23.59
2022-09-15T01:10:52.068Z,23.50
2022-09-15T01:13:54.204Z,23.45
2022-09-15T01:17:07.083Z,23.43
2022-09-15T01:20:30.303Z,23.39
2022-09-15T01:23:47.556Z,23.33
2022-09-15T01:27:30.479Z,23.32
2022-09-15T01:30:37.777Z,23.30
2022-09-15T01:33:48.662Z,23.28
2022-09-15T01:37:03.467Z,23.23
2022-09-15T01:40:07.228Z,23.11
2022-09-15T01:43:11.186Z,23.12
2022-09-15T01:46:15.340Z,23.09
2022-09-15T01:49:25.401Z,23.05
2022-09-15T01:52:29.148Z,23.04
2022-09-15T01:55:40.924Z,23.06
2022-09-15T01:58:43.131Z,22.99
2022-09-15T02:01:59.874Z,23.01
2022-09-15T02:05:18.171Z,22.91
2022-09-15T02:08:30.984Z,22.95
2022-09-15T02:11:36.683Z,22.87
2022-09-15T02:14:52.638Z,22.84
2022-09-15T02:17:58.055Z,22.79
2022-09-15T02:21:18.937Z,22.74
2022-09-15T02:24:28.726Z,22.74
2022-09-15T02:27:37.496Z,22.69
2022-09-15T02:30:42.690Z,22.85
2022-09-15T02:33:53.416Z,22.78
2022-09-15T02:36:56.487Z,22.92
2022-09-15T02:40:00.228Z,22.92
2022-09-15T02:43:05.394Z,22.94
2022-09-15T02:46:08.139Z,22.92
2022-09-15T02:49:10.380Z,23.05
2022-09-15T02:52:12.734Z,23.04
2022-09-15T02:55:15.839Z,23.01
2022-09-15T02:58:18.046Z,23.02
2022-09-15T03:01:32.281Z,22.95
2022-09-15T03:04:34.498Z,22.92
2022-09-15T03:07:38.112Z,22.90
2022-09-15T03:10:40.334Z,22.94
2022-09-15T03:13:43.086Z,22.88
2022-09-15T03:16:45.413Z,22.85
2022-09-15T03:19:47.607Z,22.84
2022-09-15T03:22:50.378Z,22.88
2022-09-15T03:25:52.511Z,22.87
2022-09-15T03:28:54.763Z,22.90
2022-09-15T03:31:57.379Z,22.84
2022-09-15T03:35:02.806Z,22.68
2022-09-15T03:38:07.263Z,22.48
2022-09-15T03:41:12.135Z,22.20
2022-09-15T03:44:14.314Z,21.97
2022-09-15T03:47:16.638Z,21.63
2022-09-15T03:50:18.808Z,21.62
2022-09-15T03:53:21.372Z,21.25
2022-09-15T03:56:31.270Z,21.27
2022-09-15T03:59:33.609Z,21.08
2022-09-15T04:02:35.774Z,20.91
2022-09-15T04:05:38.793Z,20.77
2022-09-15T04:08:41.851Z,20.42
2022-09-15T04:11:44.104Z,19.85
2022-09-15T04:14:46.286Z,19.70
2022-09-15T04:17:48.675Z,19.71
2022-09-15T04:20:50.825Z,19.54
2022-09-15T04:23:54.128Z,19.88
2022-09-15T04:26:56.292Z,19.96
2022-09-15T04:29:59.328Z,20.09
2022-09-15T04:33:01.489Z,20.13
2022-09-15T04:36:30.140Z,20.02
2022-09-15T04:39:32.295Z,19.96
2022-09-15T04:42:34.523Z,19.98
2022-09-15T04:45:36.735Z,19.84
2022-09-15T04:48:39.016Z,19.81
2022-09-15T04:51:41.234Z,19.89
2022-09-15T04:54:43.703Z,19.72
2022-09-15T04:57:46.650Z,19.81
2022-09-15T05:00:48.886Z,19.79
2022-09-15T05:03:51.924Z,19.81
2022-09-15T05:06:54.151Z,19.84
2022-09-15T05:09:56.405Z,19.65
2022-09-15T05:12:59.101Z,19.54
2022-09-15T05:16:12.461Z,19.64
2022-09-15T05:19:17.903Z,19.71
2022-09-15T05:22:20.333Z,19.89
2022-09-15T05:25:22.515Z,20.05
2022-09-15T05:28:24.994Z,20.12
2022-09-15T05:31:31.287Z,20.19
2022-09-15T05:34:33.603Z,20.64
2022-09-15T05:37:35.806Z,20.94
2022-09-15T05:40:40.912Z,21.14
2022-09-15T05:43:44.095Z,21.23
2022-09-15T05:46:46.377Z,21.23
2022-09-15T05:49:48.575Z,21.24
2022-09-15T05:52:51.664Z,21.18
2022-09-15T05:56:05.632Z,21.21
2022-09-15T05:59:10.822Z,21.11
2022-09-15T06:02:22.258Z,21.07
2022-09-15T06:05:26.520Z,21.12
2022-09-15T06:08:43.751Z,21.10
2022-09-15T06:11:52.170Z,21.44
2022-09-15T06:14:54.413Z,21.51
2022-09-15T06:17:59.176Z,21.72
2022-09-15T06:21:07.595Z,21.82
2022-09-15T06:24:15.764Z,21.92
2022-09-15T06:27:21.491Z,22.09
2022-09-15T06:30:25.092Z,22.30
2022-09-15T06:33:27.727Z,22.37
2022-09-15T06:36:30.952Z,22.39
2022-09-15T06:39:33.241Z,22.37
2022-09-15T06:42:36.726Z,22.46
2022-09-15T06:45:42.659Z,22.37
2022-09-15T06:48:48.111Z,22.46
2022-09-15T06:51:52.866Z,22.56
2022-09-15T06:54:55.189Z,22.71
2022-09-15T06:57:57.604Z,22.84
2022-09-15T07:01:12.237Z,23.11
2022-09-15T07:04:14.556Z,23.22
2022-09-15T07:07:20.406Z,23.33
2022-09-15T07:10:26.123Z,23.55
2022-09-15T07:13:31.845Z,23.92
2022-09-15T07:16:36.780Z,24.07
2022-09-15T07:19:43.509Z,24.28
2022-09-15T07:22:46.580Z,24.34
2022-09-15T07:25:49.396Z,24.27
2022-09-15T07:28:58.684Z,24.17
2022-09-15T07:32:04.922Z,24.39
2022-09-15T07:35:08.191Z,24.48
2022-09-15T07:38:14.319Z,24.78
2022-09-15T07:41:21.665Z,24.88
2022-09-15T07:44:24.695Z,24.92
2022-09-15T07:47:27.045Z,25.00
2022-09-15T07:50:29.210Z,25.19
2022-09-15T07:53:35.904Z,25.44
2022-09-15T07:56:42.143Z,25.54
2022-09-15T07:59:47.488Z,26.15
2022-09-15T08:02:52.380Z,26.69
2022-09-15T08:06:05.795Z,27.10
2022-09-15T08:09:18.003Z,27.00
2022-09-15T08:12:20.721Z,26.87
2022-09-15T08:15:23.215Z,26.79
2022-09-15T08:18:25.480Z,26.91
2022-09-15T08:21:31.103Z,26.96
2022-09-15T08:24:34.089Z,27.03
2022-09-15T08:27:42.082Z,27.40
2022-09-15T08:30:50.684Z,27.45
2022-09-15T08:33:58.036Z,27.44
2022-09-15T08:37:03.208Z,27.30
2022-09-15T08:40:05.944Z,27.23
2022-09-15T08:43:22.345Z,27.24
2022-09-15T08:46:32.069Z,27.08
2022-09-15T08:49:52.093Z,27.17
2022-09-15T08:53:01.504Z,27.06
2022-09-15T08:56:24.525Z,26.76
2022-09-15T08:59:42.097Z,26.90
2022-09-15T09:03:10.932Z,26.86
2022-09-15T09:06:37.887Z,26.94
2022-09-15T09:09:54.074Z,27.18
2022-09-15T09:13:07.605Z,26.89
2022-09-15T09:17:10.972Z,26.89
2022-09-15T09:20:55.812Z,26.80
2022-09-15T09:24:08.031Z,27.00
2022-09-15T09:27:22.040Z,27.06
2022-09-15T09:30:31.785Z,26.93
2022-09-15T09:33:49.031Z,27.00
2022-09-15T09:37:00.565Z,27.29
2022-09-15T09:40:02.831Z,27.34
2022-09-15T09:43:05.088Z,27.30
2022-09-15T09:46:16.592Z,27.06
2022-09-15T09:49:23.488Z,26.84
2022-09-15T09:52:39.124Z,26.93
2022-09-15T09:55:41.735Z,26.73
2022-09-15T09:58:44.924Z,26.84
2022-09-15T10:02:05.994Z,27.17
2022-09-15T10:05:12.501Z,27.30
2022-09-15T10:08:17.845Z,27.54
2022-09-15T10:11:20.134Z,27.63
2022-09-15T10:14:25.471Z,27.62
2022-09-15T10:17:44.717Z,27.59
2022-09-15T10:20:50.403Z,27.54
2022-09-15T10:23:52.729Z,27.71
2022-09-15T10:27:23.597Z,27.68
2022-09-15T10:30:26.834Z,27.85
2022-09-15T10:33:35.078Z,28.12
2022-09-15T10:36:37.540Z,28.12
2022-09-15T10:39:48.539Z,28.33
2022-09-15T10:42:53.427Z,29.02
2022-09-15T10:46:06.675Z,28.68
2022-09-15T10:49:30.989Z,28.67
2022-09-15T10:53:10.708Z,28.57
2022-09-15T10:56:38.879Z,28.57
2022-09-15T10:59:52.548Z,28.91
2022-09-15T11:03:23.492Z,29.33
2022-09-15T11:06:45.515Z,29.79
2022-09-15T11:10:21.232Z,29.61
2022-09-15T11:13:39.747Z,29.35
2022-09-15T11:17:20.169Z,28.91
2022-09-15T11:20:47.126Z,28.19
2022-09-15T11:24:30.702Z,28.19
2022-09-15T11:28:06.215Z,28.26
2022-09-15T11:31:16.981Z,29.05
2022-09-15T11:34:28.717Z,30.27
2022-09-15T11:37:39.873Z,30.17
2022-09-15T11:40:52.577Z,30.72
2022-09-15T11:44:17.660Z,31.49
2022-09-15T11:47:42.691Z,30.89
2022-09-15T11:50:48.158Z,30.27
2022-09-15T11:54:05.899Z,32.23
2022-09-15T11:57:35.662Z,32.35
2022-09-15T12:00:55.877Z,31.70
2022-09-15T12:04:08.592Z,30.76
2022-09-15T12:07:18.930Z,31.37
2022-09-15T12:10:25.485Z,31.54
2022-09-15T12:13:28.940Z,32.07
2022-09-15T12:16:33.216Z,32.98
2022-09-15T12:20:04.054Z,34.26
2022-09-15T12:23:29.213Z,35.16
2022-09-15T12:26:33.694Z,36.29
2022-09-15T12:29:42.039Z,36.01
2022-09-15T12:32:44.856Z,32.45
2022-09-15T12:35:47.524Z,31.23
2022-09-15T12:38:49.849Z,31.00
2022-09-15T12:42:11.691Z,30.67
2022-09-15T12:45:32.824Z,30.06
2022-09-15T12:48:36.492Z,30.16
2022-09-15T12:51:38.750Z,31.72
2022-09-15T12:54:43.381Z,32.87
2022-09-15T12:57:54.164Z,34.05
2022-09-15T13:01:18.773Z,31.74
2022-09-15T13:04:28.833Z,30.37
2022-09-15T13:07:36.135Z,29.61
2022-09-15T13:10:42.595Z,29.07
2022-09-15T13:13:56.267Z,28.63
2022-09-15T13:17:13.232Z,28.43
2022-09-15T13:20:22.293Z,27.99
2022-09-15T13:23:27.240Z,26.68
2022-09-15T13:26:31.744Z,25.94
2022-09-15T13:29:38.856Z,25.36
2022-09-15T13:32:44.604Z,24.62
2022-09-15T13:35:49.863Z,23.74
2022-09-15T13:39:16.685Z,23.35
2022-09-15T13:43:07.624Z,22.98
2022-09-15T13:46:14.026Z,22.91
2022-09-15T13:49:38.473Z,22.84
2022-09-15T13:53:01.680Z,22.71
2022-09-15T13:56:08.988Z,22.81
2022-09-15T13:59:24.177Z,22.83
2022-09-15T14:02:27.305Z,22.77
2022-09-15T14:05:33.242Z,22.75
2022-09-15T14:08:35.700Z,22.81
2022-09-15T14:11:38.648Z,22.75
2022-09-15T14:14:53.820Z,22.95
2022-09-15T14:17:56.036Z,22.92
2022-09-15T14:21:04.331Z,22.83
2022-09-15T14:24:20.595Z,22.97
2022-09-15T14:27:26.144Z,23.09
2022-09-15T14:30:32.030Z,23.19
2022-09-15T14:33:41.927Z,23.60
2022-09-15T14:36:44.663Z,23.60
2022-09-15T14:39:56.631Z,23.53
2022-09-15T14:42:59.152Z,23.55
2022-09-15T14:46:17.523Z,23.67
2022-09-15T14:49:19.831Z,23.79
2022-09-15T14:52:30.680Z,23.71
2022-09-15T14:55:54.624Z,23.60
2022-09-15T14:59:01.891Z,23.53
2022-09-15T15:02:17.892Z,23.49
2022-09-15T15:05:43.927Z,23.50
2022-09-15T15:08:57.054Z,23.57
2022-09-15T15:12:09.998Z,23.66
2022-09-15T15:15:14.558Z,23.65
2022-09-15T15:18:32.146Z,23.65
2022-09-15T15:21:38.651Z,23.59
2022-09-15T15:24:43.934Z,23.50
2022-09-15T15:27:57.123Z,23.36
2022-09-15T15:31:17.847Z,23.19
2022-09-15T15:34:24.656Z,23.11
2022-09-15T15:37:28.138Z,23.08
2022-09-15T15:40:31.130Z,23.02
2022-09-15T15:43:34.473Z,22.99
2022-09-15T15:47:13.964Z,23.02
2022-09-15T15:50:22.855Z,23.06
2022-09-15T15:53:26.161Z,23.14
2022-09-15T15:56:28.386Z,23.20
2022-09-15T15:59:31.166Z,23.23
2022-09-15T16:02:33.371Z,23.22
2022-09-15T16:05:36.109Z,23.11
2022-09-15T16:08:40.494Z,23.02
2022-09-15T16:11:43.104Z,22.94
2022-09-15T16:14:45.453Z,22.78
2022-09-15T16:17:48.190Z,22.37
2022-09-15T16:20:50.449Z,21.76
2022-09-15T16:23:52.632Z,21.21
2022-09-15T16:26:55.418Z,20.83
2022-09-15T16:29:57.547Z,20.76
2022-09-15T16:32:59.816Z,20.69
2022-09-15T16:36:06.929Z,20.49
2022-09-15T16:39:09.588Z,20.36
2022-09-15T16:42:11.767Z,20.36
2022-09-15T16:45:41.022Z,20.33
2022-09-15T16:48:43.896Z,20.30
2022-09-15T16:51:53.050Z,20.32
2022-09-15T16:54:56.041Z,20.32
2022-09-15T16:58:05.018Z,20.35
2022-09-15T17:01:21.938Z,20.23
2022-09-15T17:04:24.160Z,20.25
2022-09-15T17:07:26.924Z,20.16
2022-09-15T17:10:29.358Z,20.11
2022-09-15T17:13:33.845Z,20.15
2022-09-15T17:16:38.188Z,20.13
2022-09-15T17:19:40.316Z,20.06
2022-09-15T17:22:42.617Z,20.04
2022-09-15T17:25:51.250Z,19.91
2022-09-15T17:28:55.496Z,19.85
2022-09-15T17:31:57.639Z,19.81
2022-09-15T17:35:00.132Z,19.74
2022-09-15T17:38:04.278Z,19.64
2022-09-15T17:41:17.144Z,19.54
2022-09-15T17:44:19.276Z,19.49
2022-09-15T17:47:21.473Z,19.50
2022-09-15T17:50:25.433Z,19.54
2022-09-15T17:53:27.780Z,19.47
2022-09-15T17:56:29.912Z,19.38
2022-09-15T17:59:32.109Z,19.34
2022-09-15T18:02:34.728Z,19.30
2022-09-15T18:05:38.514Z,19.41
2022-09-15T18:08:40.804Z,19.46
2022-09-15T18:11:43.124Z,19.49
2022-09-15T18:14:45.306Z,19.58
2022-09-15T18:17:48.681Z,19.58
2022-09-15T18:20:52.988Z,19.61
2022-09-15T18:23:56.063Z,19.65
2022-09-15T18:26:58.190Z,19.65
2022-09-15T18:30:00.759Z,19.70
2022-09-15T18:33:03.100Z,19.74
2022-09-15T18:36:06.926Z,19.81
2022-09-15T18:39:11.918Z,19.74
2022-09-15T18:42:14.106Z,19.71
2022-09-15T18:45:17.785Z,19.67
2022-09-15T18:48:20.098Z,19.68
2022-09-15T18:51:29.195Z,19.71
2022-09-15T18:54:37.022Z,19.68
2022-09-15T18:57:40.259Z,19.64
2022-09-15T19:00:45.647Z,19.63
2022-09-15T19:03:47.790Z,19.65
2022-09-15T19:06:50.028Z,19.63
2022-09-15T19:09:56.369Z,19.57
2022-09-15T19:12:58.907Z,19.63
2022-09-15T19:16:08.604Z,19.65
2022-09-15T19:19:10.958Z,19.61
2022-09-15T19:22:13.218Z,19.71
2022-09-15T19:25:15.546Z,19.71
2022-09-15T19:28:17.683Z,19.77
2022-09-15T19:31:20.038Z,19.67
2022-09-15T19:34:22.297Z,19.70
2022-09-15T19:37:24.580Z,19.63
2022-09-15T19:40:26.917Z,19.64
2022-09-15T19:43:29.187Z,19.58
2022-09-15T19:46:31.567Z,19.50
2022-09-15T19:49:33.880Z,19.46
2022-09-15T19:52:36.171Z,19.40
2022-09-15T19:55:38.453Z,19.34
2022-09-15T19:58:40.727Z,19.40
2022-09-15T20:01:43.284Z,19.37
2022-09-15T20:04:45.587Z,19.27
2022-09-15T20:07:48.790Z,19.28
2022-09-15T20:10:51.230Z,19.30
2022-09-15T20:13:54.676Z,19.28
2022-09-15T20:17:00.310Z,19.27
2022-09-15T20:20:03.779Z,19.12
2022-09-15T20:23:05.935Z,19.04
2022-09-15T20:26:10.740Z,19.03
2022-09-15T20:29:13.317Z,18.99
2022-09-15T20:35:43.070Z,19.02
2022-09-15T20:38:46.921Z,19.00
2022-09-15T20:41:49.119Z,19.04
2022-09-15T20:44:51.373Z,19.04
2022-09-15T20:47:54.390Z,19.00
2022-09-15T20:51:05.656Z,18.99
2022-09-15T20:54:07.884Z,18.86
2022-09-15T20:57:10.199Z,18.82
2022-09-15T21:00:12.987Z,18.82
2022-09-15T21:03:15.926Z,18.89
2022-09-15T21:06:21.251Z,18.95
2022-09-15T21:09:23.557Z,18.83
2022-09-15T21:12:25.764Z,18.90
2022-09-15T21:15:28.298Z,18.86
2022-09-15T21:18:34.599Z,18.85
2022-09-15T21:21:36.848Z,18.83
2022-09-15T21:24:38.981Z,18.82
2022-09-15T21:27:41.307Z,18.81
2022-09-15T21:30:43.443Z,18.79
2022-09-15T21:33:47.502Z,18.77
2022-09-15T21:36:51.748Z,18.73
2022-09-15T21:39:54.082Z,18.71
2022-09-15T21:42:56.278Z,18.73
2022-09-15T21:45:59.016Z,18.72
2022-09-15T21:49:01.197Z,18.69
2022-09-15T21:52:03.388Z,18.73
2022-09-15T21:55:05.960Z,18.71
2022-09-15T21:58:08.338Z,18.69
2022-09-15T22:01:19.274Z,18.71
2022-09-15T22:04:21.627Z,18.66
2022-09-15T22:07:23.990Z,18.72
2022-09-15T22:10:26.209Z,18.68
2022-09-15T22:13:28.413Z,18.63
2022-09-15T22:16:30.693Z,18.65
2022-09-15T22:19:32.908Z,18.58
2022-09-15T22:22:35.485Z,18.56
2022-09-15T22:25:37.670Z,18.56
2022-09-15T22:28:40.292Z,18.53
2022-09-15T22:31:42.641Z,18.61
2022-09-15T22:34:45.656Z,18.59
2022-09-15T22:37:47.791Z,18.62
2022-09-15T22:40:50.020Z,18.55
2022-09-15T22:43:52.184Z,18.56
2022-09-15T22:46:56.582Z,18.58
2022-09-15T22:50:01.749Z,18.59
2022-09-15T22:53:04.260Z,18.51
2022-09-15T22:56:19.903Z,18.49
2022-09-15T22:59:22.407Z,18.42
2022-09-15T23:02:24.615Z,18.49
2022-09-15T23:05:26.872Z,18.49
2022-09-15T23:08:30.217Z,18.49
2022-09-15T23:11:33.352Z,18.47
2022-09-15T23:14:36.098Z,18.44
2022-09-15T23:17:39.115Z,18.44
2022-09-15T23:20:42.502Z,18.35
2022-09-15T23:23:47.662Z,18.34
2022-09-15T23:26:49.828Z,18.28
2022-09-15T23:29:52.041Z,18.24
2022-09-15T23:32:54.441Z,18.22
2022-09-15T23:35:59.173Z,18.25
2022-09-15T23:39:01.375Z,18.21
2022-09-15T23:42:03.794Z,18.18
2022-09-15T23:45:06.441Z,18.15
2022-09-15T23:48:09.382Z,18.20
2022-09-15T23:51:11.591Z,18.22
2022-09-15T23:54:13.941Z,18.28
2022-09-15T23:57:16.117Z,18.25
